sensor_id;sensor_type;location;lat;lon;timestamp;P1;durP1;ratioP1;P2;durP2;ratioP2
55254;SDS011;41118;44.634;11.182;2023-02-21T00:01:46;40.88;;;16.70;;
55254;SDS011;41118;44.634;11.182;2023-02-21T00:04:30;33.30;;;15.95;;
55254;SDS011;41118;44.634;11.182;2023-02-21T00:07:15;37.47;;;17.05;;
55254;SDS011;41118;44.634;11.182;2023-02-21T00:10:00;36.83;;;17.63;;
55254;SDS011;41118;44.634;11.182;2023-02-21T00:12:44;35.85;;;17.58;;
55254;SDS011;41118;44.634;11.182;2023-02-21T00:15:29;31.52;;;15.93;;
55254;SDS011;41118;44.634;11.182;2023-02-21T00:18:13;41.45;;;17.25;;
55254;SDS011;41118;44.634;11.182;2023-02-21T00:20:58;31.88;;;15.82;;
55254;SDS011;41118;44.634;11.182;2023-02-21T00:23:42;36.92;;;15.73;;
55254;SDS011;41118;44.634;11.182;2023-02-21T00:26:27;36.90;;;16.13;;
55254;SDS011;41118;44.634;11.182;2023-02-21T00:29:11;38.10;;;16.58;;
55254;SDS011;41118;44.634;11.182;2023-02-21T00:31:56;31.98;;;16.35;;
55254;SDS011;41118;44.634;11.182;2023-02-21T00:34:41;37.45;;;16.48;;
55254;SDS011;41118;44.634;11.182;2023-02-21T00:37:25;26.77;;;15.98;;
55254;SDS011;41118;44.634;11.182;2023-02-21T00:40:10;36.88;;;16.80;;
55254;SDS011;41118;44.634;11.182;2023-02-21T00:42:55;35.30;;;15.35;;
55254;SDS011;41118;44.634;11.182;2023-02-21T00:45:39;35.75;;;17.23;;
55254;SDS011;41118;44.634;11.182;2023-02-21T00:48:24;34.75;;;15.02;;
55254;SDS011;41118;44.634;11.182;2023-02-21T00:51:09;44.25;;;17.08;;
55254;SDS011;41118;44.634;11.182;2023-02-21T00:53:53;37.20;;;16.90;;
55254;SDS011;41118;44.634;11.182;2023-02-21T00:56:38;35.63;;;15.88;;
55254;SDS011;41118;44.634;11.182;2023-02-21T00:59:23;33.28;;;15.20;;
55254;SDS011;41118;44.634;11.182;2023-02-21T01:02:08;40.45;;;16.42;;
55254;SDS011;41118;44.634;11.182;2023-02-21T01:04:53;33.05;;;16.48;;
55254;SDS011;41118;44.634;11.182;2023-02-21T01:07:38;32.35;;;16.15;;
55254;SDS011;41118;44.634;11.182;2023-02-21T01:10:22;35.30;;;16.00;;
55254;SDS011;41118;44.634;11.182;2023-02-21T01:13:07;39.45;;;16.67;;
55254;SDS011;41118;44.634;11.182;2023-02-21T01:15:52;33.58;;;14.85;;
55254;SDS011;41118;44.634;11.182;2023-02-21T01:18:36;41.33;;;16.70;;
55254;SDS011;41118;44.634;11.182;2023-02-21T01:21:21;35.13;;;15.48;;
55254;SDS011;41118;44.634;11.182;2023-02-21T01:24:07;34.22;;;14.13;;
55254;SDS011;41118;44.634;11.182;2023-02-21T01:26:52;30.60;;;14.00;;
55254;SDS011;41118;44.634;11.182;2023-02-21T01:29:37;32.08;;;14.43;;
55254;SDS011;41118;44.634;11.182;2023-02-21T01:32:21;36.15;;;15.77;;
55254;SDS011;41118;44.634;11.182;2023-02-21T01:35:06;35.80;;;16.60;;
55254;SDS011;41118;44.634;11.182;2023-02-21T01:37:51;35.05;;;14.20;;
55254;SDS011;41118;44.634;11.182;2023-02-21T01:40:38;37.40;;;15.68;;
55254;SDS011;41118;44.634;11.182;2023-02-21T01:43:24;38.65;;;16.70;;
55254;SDS011;41118;44.634;11.182;2023-02-21T01:46:10;33.67;;;16.55;;
55254;SDS011;41118;44.634;11.182;2023-02-21T01:48:55;33.70;;;16.17;;
55254;SDS011;41118;44.634;11.182;2023-02-21T01:51:41;37.08;;;17.02;;
55254;SDS011;41118;44.634;11.182;2023-02-21T01:54:26;37.45;;;16.80;;
55254;SDS011;41118;44.634;11.182;2023-02-21T01:57:11;35.17;;;15.10;;
55254;SDS011;41118;44.634;11.182;2023-02-21T01:59:57;33.97;;;15.13;;
55254;SDS011;41118;44.634;11.182;2023-02-21T02:02:48;36.80;;;15.88;;
55254;SDS011;41118;44.634;11.182;2023-02-21T02:05:33;39.03;;;14.82;;
55254;SDS011;41118;44.634;11.182;2023-02-21T02:08:20;33.03;;;15.88;;
55254;SDS011;41118;44.634;11.182;2023-02-21T02:11:15;33.88;;;17.30;;
55254;SDS011;41118;44.634;11.182;2023-02-21T02:14:10;29.10;;;12.30;;
55254;SDS011;41118;44.634;11.182;2023-02-21T02:16:41;30.45;;;14.25;;
55254;SDS011;41118;44.634;11.182;2023-02-21T02:24:46;33.75;;;15.45;;
55254;SDS011;41118;44.634;11.182;2023-02-21T02:30:05;35.50;;;16.35;;
55254;SDS011;41118;44.634;11.182;2023-02-21T02:35:21;35.17;;;19.13;;
55254;SDS011;41118;44.634;11.182;2023-02-21T02:38:04;31.10;;;14.23;;
55254;SDS011;41118;44.634;11.182;2023-02-21T02:40:57;35.83;;;15.98;;
55254;SDS011;41118;44.634;11.182;2023-02-21T02:43:21;37.15;;;16.50;;
55254;SDS011;41118;44.634;11.182;2023-02-21T02:45:52;34.25;;;16.02;;
55254;SDS011;41118;44.634;11.182;2023-02-21T02:50:49;43.40;;;16.85;;
55254;SDS011;41118;44.634;11.182;2023-02-21T02:53:17;30.42;;;17.30;;
55254;SDS011;41118;44.634;11.182;2023-02-21T02:55:49;34.78;;;19.42;;
55254;SDS011;41118;44.634;11.182;2023-02-21T02:58:16;33.88;;;17.13;;
55254;SDS011;41118;44.634;11.182;2023-02-21T03:00:48;35.95;;;16.00;;
55254;SDS011;41118;44.634;11.182;2023-02-21T03:08:52;26.17;;;12.77;;
55254;SDS011;41118;44.634;11.182;2023-02-21T03:11:17;34.92;;;15.68;;
55254;SDS011;41118;44.634;11.182;2023-02-21T03:13:50;37.20;;;15.77;;
55254;SDS011;41118;44.634;11.182;2023-02-21T03:16:41;40.70;;;17.27;;
55254;SDS011;41118;44.634;11.182;2023-02-21T03:19:06;38.78;;;16.08;;
55254;SDS011;41118;44.634;11.182;2023-02-21T03:21:35;40.35;;;15.23;;
55254;SDS011;41118;44.634;11.182;2023-02-21T03:24:03;35.42;;;15.82;;
55254;SDS011;41118;44.634;11.182;2023-02-21T03:26:31;33.60;;;17.05;;
55254;SDS011;41118;44.634;11.182;2023-02-21T03:28:58;29.23;;;15.70;;
55254;SDS011;41118;44.634;11.182;2023-02-21T03:31:27;33.17;;;16.85;;
55254;SDS011;41118;44.634;11.182;2023-02-21T03:33:54;33.65;;;14.05;;
55254;SDS011;41118;44.634;11.182;2023-02-21T03:36:21;31.48;;;14.48;;
55254;SDS011;41118;44.634;11.182;2023-02-21T03:38:47;32.05;;;13.57;;
55254;SDS011;41118;44.634;11.182;2023-02-21T03:41:14;36.17;;;16.38;;
55254;SDS011;41118;44.634;11.182;2023-02-21T03:43:40;34.38;;;14.77;;
55254;SDS011;41118;44.634;11.182;2023-02-21T03:46:06;34.63;;;14.02;;
55254;SDS011;41118;44.634;11.182;2023-02-21T03:48:32;30.08;;;14.88;;
55254;SDS011;41118;44.634;11.182;2023-02-21T03:50:59;37.17;;;16.10;;
55254;SDS011;41118;44.634;11.182;2023-02-21T03:53:25;32.03;;;13.43;;
55254;SDS011;41118;44.634;11.182;2023-02-21T03:55:51;29.88;;;12.73;;
55254;SDS011;41118;44.634;11.182;2023-02-21T03:58:17;31.27;;;12.90;;
55254;SDS011;41118;44.634;11.182;2023-02-21T04:00:43;25.13;;;12.05;;
55254;SDS011;41118;44.634;11.182;2023-02-21T04:03:09;32.20;;;13.05;;
55254;SDS011;41118;44.634;11.182;2023-02-21T04:05:36;38.00;;;13.15;;
55254;SDS011;41118;44.634;11.182;2023-02-21T04:08:02;29.02;;;13.15;;
55254;SDS011;41118;44.634;11.182;2023-02-21T04:10:28;29.75;;;14.23;;
55254;SDS011;41118;44.634;11.182;2023-02-21T04:12:54;30.85;;;14.23;;
55254;SDS011;41118;44.634;11.182;2023-02-21T04:15:20;26.30;;;13.30;;
55254;SDS011;41118;44.634;11.182;2023-02-21T04:17:47;32.80;;;15.25;;
55254;SDS011;41118;44.634;11.182;2023-02-21T04:20:14;34.63;;;15.25;;
55254;SDS011;41118;44.634;11.182;2023-02-21T04:22:40;28.23;;;11.82;;
55254;SDS011;41118;44.634;11.182;2023-02-21T04:25:06;25.65;;;12.82;;
55254;SDS011;41118;44.634;11.182;2023-02-21T04:27:33;27.60;;;12.00;;
55254;SDS011;41118;44.634;11.182;2023-02-21T04:29:59;29.85;;;13.25;;
55254;SDS011;41118;44.634;11.182;2023-02-21T04:32:25;32.60;;;13.88;;
55254;SDS011;41118;44.634;11.182;2023-02-21T04:34:52;28.02;;;13.05;;
55254;SDS011;41118;44.634;11.182;2023-02-21T04:37:18;25.35;;;12.32;;
55254;SDS011;41118;44.634;11.182;2023-02-21T04:39:44;28.35;;;13.55;;
55254;SDS011;41118;44.634;11.182;2023-02-21T04:42:11;31.77;;;13.73;;
55254;SDS011;41118;44.634;11.182;2023-02-21T04:44:37;28.92;;;13.63;;
55254;SDS011;41118;44.634;11.182;2023-02-21T04:47:03;33.88;;;15.10;;
55254;SDS011;41118;44.634;11.182;2023-02-21T04:49:29;28.27;;;14.48;;
55254;SDS011;41118;44.634;11.182;2023-02-21T04:51:55;35.97;;;12.82;;
55254;SDS011;41118;44.634;11.182;2023-02-21T04:54:21;33.58;;;15.60;;
55254;SDS011;41118;44.634;11.182;2023-02-21T04:56:47;29.98;;;13.68;;
55254;SDS011;41118;44.634;11.182;2023-02-21T04:59:14;27.88;;;14.35;;
55254;SDS011;41118;44.634;11.182;2023-02-21T05:01:40;30.05;;;14.35;;
55254;SDS011;41118;44.634;11.182;2023-02-21T05:04:06;30.38;;;14.45;;
55254;SDS011;41118;44.634;11.182;2023-02-21T05:06:32;32.78;;;13.32;;
55254;SDS011;41118;44.634;11.182;2023-02-21T05:08:58;29.65;;;13.93;;
55254;SDS011;41118;44.634;11.182;2023-02-21T05:11:25;36.65;;;14.80;;
55254;SDS011;41118;44.634;11.182;2023-02-21T05:13:51;36.00;;;14.18;;
55254;SDS011;41118;44.634;11.182;2023-02-21T05:16:18;32.90;;;15.35;;
55254;SDS011;41118;44.634;11.182;2023-02-21T05:18:44;25.40;;;13.13;;
55254;SDS011;41118;44.634;11.182;2023-02-21T05:21:11;32.70;;;15.63;;
55254;SDS011;41118;44.634;11.182;2023-02-21T05:23:38;25.73;;;12.30;;
55254;SDS011;41118;44.634;11.182;2023-02-21T05:26:11;33.92;;;15.77;;
55254;SDS011;41118;44.634;11.182;2023-02-21T05:28:37;32.70;;;15.27;;
55254;SDS011;41118;44.634;11.182;2023-02-21T05:31:04;34.65;;;16.67;;
55254;SDS011;41118;44.634;11.182;2023-02-21T05:33:30;29.38;;;14.15;;
55254;SDS011;41118;44.634;11.182;2023-02-21T05:35:57;32.72;;;15.80;;
55254;SDS011;41118;44.634;11.182;2023-02-21T05:38:24;28.25;;;14.02;;
55254;SDS011;41118;44.634;11.182;2023-02-21T05:40:51;28.20;;;13.48;;
55254;SDS011;41118;44.634;11.182;2023-02-21T05:43:17;35.95;;;15.38;;
55254;SDS011;41118;44.634;11.182;2023-02-21T05:45:44;24.13;;;11.68;;
55254;SDS011;41118;44.634;11.182;2023-02-21T05:48:10;33.25;;;13.50;;
55254;SDS011;41118;44.634;11.182;2023-02-21T05:50:36;29.60;;;14.13;;
55254;SDS011;41118;44.634;11.182;2023-02-21T05:53:03;21.52;;;9.50;;
55254;SDS011;41118;44.634;11.182;2023-02-21T05:55:30;26.85;;;11.70;;
55254;SDS011;41118;44.634;11.182;2023-02-21T05:57:56;31.42;;;12.45;;
55254;SDS011;41118;44.634;11.182;2023-02-21T06:00:23;26.73;;;13.52;;
55254;SDS011;41118;44.634;11.182;2023-02-21T06:02:49;26.45;;;12.43;;
55254;SDS011;41118;44.634;11.182;2023-02-21T06:05:16;36.35;;;12.88;;
55254;SDS011;41118;44.634;11.182;2023-02-21T06:07:42;33.60;;;14.23;;
55254;SDS011;41118;44.634;11.182;2023-02-21T06:10:09;31.13;;;12.43;;
55254;SDS011;41118;44.634;11.182;2023-02-21T06:12:35;31.33;;;12.38;;
55254;SDS011;41118;44.634;11.182;2023-02-21T06:15:01;35.67;;;14.15;;
55254;SDS011;41118;44.634;11.182;2023-02-21T06:17:31;32.67;;;14.10;;
55254;SDS011;41118;44.634;11.182;2023-02-21T06:19:57;30.27;;;13.68;;
55254;SDS011;41118;44.634;11.182;2023-02-21T06:22:24;29.90;;;14.18;;
55254;SDS011;41118;44.634;11.182;2023-02-21T06:24:50;36.35;;;15.93;;
55254;SDS011;41118;44.634;11.182;2023-02-21T06:27:16;35.22;;;15.05;;
55254;SDS011;41118;44.634;11.182;2023-02-21T06:29:42;32.28;;;13.73;;
55254;SDS011;41118;44.634;11.182;2023-02-21T06:32:08;31.00;;;14.77;;
55254;SDS011;41118;44.634;11.182;2023-02-21T06:34:35;30.50;;;14.30;;
55254;SDS011;41118;44.634;11.182;2023-02-21T06:37:01;30.67;;;11.73;;
55254;SDS011;41118;44.634;11.182;2023-02-21T06:39:27;30.67;;;13.95;;
55254;SDS011;41118;44.634;11.182;2023-02-21T06:41:53;33.25;;;14.50;;
55254;SDS011;41118;44.634;11.182;2023-02-21T06:44:20;31.02;;;13.27;;
55254;SDS011;41118;44.634;11.182;2023-02-21T06:46:47;39.80;;;13.30;;
55254;SDS011;41118;44.634;11.182;2023-02-21T06:49:14;37.20;;;15.55;;
55254;SDS011;41118;44.634;11.182;2023-02-21T06:51:41;37.28;;;15.15;;
55254;SDS011;41118;44.634;11.182;2023-02-21T06:54:07;37.45;;;14.32;;
55254;SDS011;41118;44.634;11.182;2023-02-21T06:56:34;26.33;;;13.38;;
55254;SDS011;41118;44.634;11.182;2023-02-21T06:59:00;35.15;;;15.38;;
55254;SDS011;41118;44.634;11.182;2023-02-21T07:01:27;36.33;;;14.60;;
55254;SDS011;41118;44.634;11.182;2023-02-21T07:03:53;36.55;;;14.45;;
55254;SDS011;41118;44.634;11.182;2023-02-21T07:06:20;30.50;;;13.15;;
55254;SDS011;41118;44.634;11.182;2023-02-21T07:08:46;35.72;;;15.52;;
55254;SDS011;41118;44.634;11.182;2023-02-21T07:11:13;28.98;;;13.57;;
55254;SDS011;41118;44.634;11.182;2023-02-21T07:13:39;33.65;;;15.70;;
55254;SDS011;41118;44.634;11.182;2023-02-21T07:16:05;33.25;;;14.10;;
55254;SDS011;41118;44.634;11.182;2023-02-21T07:18:31;34.40;;;14.57;;
55254;SDS011;41118;44.634;11.182;2023-02-21T07:20:58;33.00;;;15.25;;
55254;SDS011;41118;44.634;11.182;2023-02-21T07:23:24;37.20;;;14.77;;
55254;SDS011;41118;44.634;11.182;2023-02-21T07:25:50;34.88;;;14.57;;
55254;SDS011;41118;44.634;11.182;2023-02-21T07:28:16;32.95;;;12.75;;
55254;SDS011;41118;44.634;11.182;2023-02-21T07:30:43;31.27;;;15.60;;
55254;SDS011;41118;44.634;11.182;2023-02-21T07:33:10;39.70;;;16.60;;
55254;SDS011;41118;44.634;11.182;2023-02-21T07:35:37;35.20;;;13.60;;
55254;SDS011;41118;44.634;11.182;2023-02-21T07:38:03;36.20;;;15.18;;
55254;SDS011;41118;44.634;11.182;2023-02-21T07:40:29;30.05;;;14.70;;
55254;SDS011;41118;44.634;11.182;2023-02-21T07:42:56;32.10;;;15.57;;
55254;SDS011;41118;44.634;11.182;2023-02-21T07:45:22;33.35;;;14.88;;
55254;SDS011;41118;44.634;11.182;2023-02-21T07:47:48;35.88;;;15.38;;
55254;SDS011;41118;44.634;11.182;2023-02-21T07:50:15;35.75;;;15.63;;
55254;SDS011;41118;44.634;11.182;2023-02-21T07:52:42;39.55;;;16.20;;
55254;SDS011;41118;44.634;11.182;2023-02-21T07:55:08;47.92;;;17.90;;
55254;SDS011;41118;44.634;11.182;2023-02-21T07:57:36;42.85;;;16.58;;
55254;SDS011;41118;44.634;11.182;2023-02-21T08:00:03;43.45;;;18.70;;
55254;SDS011;41118;44.634;11.182;2023-02-21T08:02:29;50.63;;;17.85;;
55254;SDS011;41118;44.634;11.182;2023-02-21T08:04:55;50.38;;;19.30;;
55254;SDS011;41118;44.634;11.182;2023-02-21T08:07:21;43.28;;;18.67;;
55254;SDS011;41118;44.634;11.182;2023-02-21T08:09:49;42.63;;;20.77;;
55254;SDS011;41118;44.634;11.182;2023-02-21T08:12:15;47.15;;;17.77;;
55254;SDS011;41118;44.634;11.182;2023-02-21T08:14:42;44.78;;;19.73;;
55254;SDS011;41118;44.634;11.182;2023-02-21T08:17:08;45.80;;;21.05;;
55254;SDS011;41118;44.634;11.182;2023-02-21T08:19:34;54.10;;;23.33;;
55254;SDS011;41118;44.634;11.182;2023-02-21T08:22:00;49.55;;;21.02;;
55254;SDS011;41118;44.634;11.182;2023-02-21T08:24:27;45.28;;;18.40;;
55254;SDS011;41118;44.634;11.182;2023-02-21T08:26:53;46.30;;;19.50;;
55254;SDS011;41118;44.634;11.182;2023-02-21T08:29:19;44.45;;;19.55;;
55254;SDS011;41118;44.634;11.182;2023-02-21T08:31:46;54.88;;;20.58;;
55254;SDS011;41118;44.634;11.182;2023-02-21T08:34:12;55.90;;;22.70;;
55254;SDS011;41118;44.634;11.182;2023-02-21T08:36:40;58.15;;;23.60;;
55254;SDS011;41118;44.634;11.182;2023-02-21T08:39:07;50.40;;;22.58;;
55254;SDS011;41118;44.634;11.182;2023-02-21T08:41:34;48.25;;;20.65;;
55254;SDS011;41118;44.634;11.182;2023-02-21T08:44:01;48.85;;;20.33;;
55254;SDS011;41118;44.634;11.182;2023-02-21T08:46:27;52.40;;;19.35;;
55254;SDS011;41118;44.634;11.182;2023-02-21T08:48:53;49.65;;;19.17;;
55254;SDS011;41118;44.634;11.182;2023-02-21T08:51:23;60.10;;;22.90;;
55254;SDS011;41118;44.634;11.182;2023-02-21T08:53:49;53.42;;;22.23;;
55254;SDS011;41118;44.634;11.182;2023-02-21T08:56:25;55.05;;;23.92;;
55254;SDS011;41118;44.634;11.182;2023-02-21T08:58:52;56.35;;;20.55;;
55254;SDS011;41118;44.634;11.182;2023-02-21T09:01:19;52.92;;;22.35;;
55254;SDS011;41118;44.634;11.182;2023-02-21T09:03:45;50.25;;;18.70;;
55254;SDS011;41118;44.634;11.182;2023-02-21T09:06:12;45.05;;;17.60;;
55254;SDS011;41118;44.634;11.182;2023-02-21T09:08:38;52.63;;;20.80;;
55254;SDS011;41118;44.634;11.182;2023-02-21T09:11:05;54.15;;;24.13;;
55254;SDS011;41118;44.634;11.182;2023-02-21T09:13:31;51.22;;;22.85;;
55254;SDS011;41118;44.634;11.182;2023-02-21T09:16:01;53.03;;;20.92;;
55254;SDS011;41118;44.634;11.182;2023-02-21T09:18:27;55.92;;;21.33;;
55254;SDS011;41118;44.634;11.182;2023-02-21T09:20:54;51.40;;;23.33;;
55254;SDS011;41118;44.634;11.182;2023-02-21T09:23:22;59.38;;;23.70;;
55254;SDS011;41118;44.634;11.182;2023-02-21T09:25:49;57.78;;;23.63;;
55254;SDS011;41118;44.634;11.182;2023-02-21T09:28:15;53.95;;;21.00;;
55254;SDS011;41118;44.634;11.182;2023-02-21T09:30:41;55.38;;;23.15;;
55254;SDS011;41118;44.634;11.182;2023-02-21T09:33:08;80.40;;;25.55;;
55254;SDS011;41118;44.634;11.182;2023-02-21T09:35:34;56.95;;;22.92;;
55254;SDS011;41118;44.634;11.182;2023-02-21T09:38:02;54.42;;;22.95;;
55254;SDS011;41118;44.634;11.182;2023-02-21T09:40:43;61.03;;;24.48;;
55254;SDS011;41118;44.634;11.182;2023-02-21T09:43:15;75.25;;;33.25;;
55254;SDS011;41118;44.634;11.182;2023-02-21T09:45:41;87.95;;;37.28;;
55254;SDS011;41118;44.634;11.182;2023-02-21T09:48:16;84.15;;;36.70;;
55254;SDS011;41118;44.634;11.182;2023-02-21T09:50:47;82.38;;;37.65;;
55254;SDS011;41118;44.634;11.182;2023-02-21T09:53:16;83.63;;;34.13;;
55254;SDS011;41118;44.634;11.182;2023-02-21T09:55:43;86.10;;;35.63;;
55254;SDS011;41118;44.634;11.182;2023-02-21T09:58:11;82.70;;;34.20;;
55254;SDS011;41118;44.634;11.182;2023-02-21T10:00:39;77.20;;;34.50;;
55254;SDS011;41118;44.634;11.182;2023-02-21T10:11:53;50.70;;;19.58;;
55254;SDS011;41118;44.634;11.182;2023-02-21T10:16:15;52.45;;;20.30;;
55254;SDS011;41118;44.634;11.182;2023-02-21T10:18:44;54.95;;;24.40;;
55254;SDS011;41118;44.634;11.182;2023-02-21T10:21:15;68.07;;;25.35;;
55254;SDS011;41118;44.634;11.182;2023-02-21T10:23:45;60.00;;;24.15;;
55254;SDS011;41118;44.634;11.182;2023-02-21T10:26:16;66.95;;;22.85;;
55254;SDS011;41118;44.634;11.182;2023-02-21T10:28:43;56.83;;;21.90;;
55254;SDS011;41118;44.634;11.182;2023-02-21T10:31:42;53.60;;;18.83;;
55254;SDS011;41118;44.634;11.182;2023-02-21T10:34:05;54.35;;;21.42;;
55254;SDS011;41118;44.634;11.182;2023-02-21T10:36:32;54.28;;;21.27;;
55254;SDS011;41118;44.634;11.182;2023-02-21T10:41:29;52.15;;;20.10;;
55254;SDS011;41118;44.634;11.182;2023-02-21T10:44:00;58.15;;;20.33;;
55254;SDS011;41118;44.634;11.182;2023-02-21T10:49:19;74.38;;;34.38;;
55254;SDS011;41118;44.634;11.182;2023-02-21T10:51:46;83.18;;;33.95;;
55254;SDS011;41118;44.634;11.182;2023-02-21T10:54:23;91.97;;;36.45;;
55254;SDS011;41118;44.634;11.182;2023-02-21T10:56:50;80.68;;;37.60;;
55254;SDS011;41118;44.634;11.182;2023-02-21T11:01:52;89.43;;;38.20;;
55254;SDS011;41118;44.634;11.182;2023-02-21T11:07:27;84.65;;;38.25;;
55254;SDS011;41118;44.634;11.182;2023-02-21T11:19:44;51.25;;;19.95;;
55254;SDS011;41118;44.634;11.182;2023-02-21T11:22:12;61.83;;;22.42;;
55254;SDS011;41118;44.634;11.182;2023-02-21T11:24:46;59.63;;;22.88;;
55254;SDS011;41118;44.634;11.182;2023-02-21T11:27:14;68.82;;;24.50;;
55254;SDS011;41118;44.634;11.182;2023-02-21T11:29:42;56.60;;;20.00;;
55254;SDS011;41118;44.634;11.182;2023-02-21T11:32:15;54.13;;;22.83;;
55254;SDS011;41118;44.634;11.182;2023-02-21T11:34:44;54.85;;;22.92;;
55254;SDS011;41118;44.634;11.182;2023-02-21T11:37:12;57.35;;;19.10;;
55254;SDS011;41118;44.634;11.182;2023-02-21T11:39:39;50.42;;;19.40;;
55254;SDS011;41118;44.634;11.182;2023-02-21T11:45:02;57.40;;;20.90;;
55254;SDS011;41118;44.634;11.182;2023-02-21T11:47:36;48.42;;;17.40;;
55254;SDS011;41118;44.634;11.182;2023-02-21T11:52:51;48.97;;;18.50;;
55254;SDS011;41118;44.634;11.182;2023-02-21T11:55:17;51.60;;;20.63;;
55254;SDS011;41118;44.634;11.182;2023-02-21T11:57:46;54.90;;;20.65;;
55254;SDS011;41118;44.634;11.182;2023-02-21T12:00:17;42.85;;;17.45;;
55254;SDS011;41118;44.634;11.182;2023-02-21T12:02:58;52.90;;;19.23;;
55254;SDS011;41118;44.634;11.182;2023-02-21T12:28:30;40.65;;;16.23;;
55254;SDS011;41118;44.634;11.182;2023-02-21T12:33:31;48.63;;;18.85;;
55254;SDS011;41118;44.634;11.182;2023-02-21T12:46:08;40.10;;;14.13;;
55254;SDS011;41118;44.634;11.182;2023-02-21T12:48:45;41.58;;;15.60;;
55254;SDS011;41118;44.634;11.182;2023-02-21T12:51:13;43.75;;;15.25;;
55254;SDS011;41118;44.634;11.182;2023-02-21T12:53:42;39.08;;;13.48;;
55254;SDS011;41118;44.634;11.182;2023-02-21T13:01:18;35.53;;;14.93;;
55254;SDS011;41118;44.634;11.182;2023-02-21T13:11:28;44.63;;;13.18;;
55254;SDS011;41118;44.634;11.182;2023-02-21T13:13:55;29.52;;;10.57;;
55254;SDS011;41118;44.634;11.182;2023-02-21T13:16:22;25.02;;;8.85;;
55254;SDS011;41118;44.634;11.182;2023-02-21T13:26:53;32.70;;;10.60;;
55254;SDS011;41118;44.634;11.182;2023-02-21T13:29:23;33.25;;;11.55;;
55254;SDS011;41118;44.634;11.182;2023-02-21T13:31:56;31.70;;;11.40;;
55254;SDS011;41118;44.634;11.182;2023-02-21T13:34:23;25.90;;;8.00;;
55254;SDS011;41118;44.634;11.182;2023-02-21T13:36:50;29.33;;;10.20;;
55254;SDS011;41118;44.634;11.182;2023-02-21T13:39:17;29.65;;;9.15;;
55254;SDS011;41118;44.634;11.182;2023-02-21T13:41:50;36.78;;;10.93;;
55254;SDS011;41118;44.634;11.182;2023-02-21T13:51:55;35.30;;;11.07;;
55254;SDS011;41118;44.634;11.182;2023-02-21T13:54:56;25.95;;;9.82;;
55254;SDS011;41118;44.634;11.182;2023-02-21T13:57:31;24.90;;;9.30;;
55254;SDS011;41118;44.634;11.182;2023-02-21T13:59:57;25.55;;;8.90;;
55254;SDS011;41118;44.634;11.182;2023-02-21T14:02:27;25.80;;;9.90;;
55254;SDS011;41118;44.634;11.182;2023-02-21T14:10:17;24.00;;;7.80;;
55254;SDS011;41118;44.634;11.182;2023-02-21T14:12:49;23.75;;;7.57;;
55254;SDS011;41118;44.634;11.182;2023-02-21T14:15:16;20.30;;;6.43;;
55254;SDS011;41118;44.634;11.182;2023-02-21T14:17:43;20.45;;;5.63;;
55254;SDS011;41118;44.634;11.182;2023-02-21T14:20:15;19.35;;;6.55;;
55254;SDS011;41118;44.634;11.182;2023-02-21T14:22:42;29.05;;;9.45;;
55254;SDS011;41118;44.634;11.182;2023-02-21T14:27:38;24.05;;;9.43;;
55254;SDS011;41118;44.634;11.182;2023-02-21T14:38:04;27.65;;;9.85;;
55254;SDS011;41118;44.634;11.182;2023-02-21T14:45:43;28.65;;;10.27;;
55254;SDS011;41118;44.634;11.182;2023-02-21T15:03:36;20.20;;;6.15;;
55254;SDS011;41118;44.634;11.182;2023-02-21T15:06:10;22.30;;;7.20;;
55254;SDS011;41118;44.634;11.182;2023-02-21T15:08:43;28.45;;;9.93;;
55254;SDS011;41118;44.634;11.182;2023-02-21T15:11:26;26.23;;;8.65;;
55254;SDS011;41118;44.634;11.182;2023-02-21T15:16:39;16.20;;;5.35;;
55254;SDS011;41118;44.634;11.182;2023-02-21T15:19:14;30.52;;;7.50;;
55254;SDS011;41118;44.634;11.182;2023-02-21T15:21:41;22.05;;;6.90;;
55254;SDS011;41118;44.634;11.182;2023-02-21T15:24:12;24.70;;;7.28;;
55254;SDS011;41118;44.634;11.182;2023-02-21T15:26:38;25.73;;;7.72;;
55254;SDS011;41118;44.634;11.182;2023-02-21T15:29:12;20.25;;;7.50;;
55254;SDS011;41118;44.634;11.182;2023-02-21T15:34:14;19.90;;;6.63;;
55254;SDS011;41118;44.634;11.182;2023-02-21T15:36:43;20.52;;;5.95;;
55254;SDS011;41118;44.634;11.182;2023-02-21T15:39:43;30.75;;;10.18;;
55254;SDS011;41118;44.634;11.182;2023-02-21T15:42:02;15.85;;;4.50;;
55254;SDS011;41118;44.634;11.182;2023-02-21T15:44:30;24.08;;;8.07;;
55254;SDS011;41118;44.634;11.182;2023-02-21T15:47:00;20.40;;;6.60;;
55254;SDS011;41118;44.634;11.182;2023-02-21T15:49:34;17.90;;;5.32;;
55254;SDS011;41118;44.634;11.182;2023-02-21T15:52:02;15.00;;;4.53;;
55254;SDS011;41118;44.634;11.182;2023-02-21T15:54:32;10.15;;;4.15;;
55254;SDS011;41118;44.634;11.182;2023-02-21T15:56:59;15.68;;;5.32;;
55254;SDS011;41118;44.634;11.182;2023-02-21T15:59:26;22.05;;;5.38;;
55254;SDS011;41118;44.634;11.182;2023-02-21T16:02:06;19.08;;;4.88;;
55254;SDS011;41118;44.634;11.182;2023-02-21T16:04:36;14.57;;;5.30;;
55254;SDS011;41118;44.634;11.182;2023-02-21T16:07:03;14.55;;;5.10;;
55254;SDS011;41118;44.634;11.182;2023-02-21T16:09:30;14.63;;;5.43;;
55254;SDS011;41118;44.634;11.182;2023-02-21T16:14:34;16.85;;;4.00;;
55254;SDS011;41118;44.634;11.182;2023-02-21T16:19:34;19.73;;;6.93;;
55254;SDS011;41118;44.634;11.182;2023-02-21T16:24:45;19.23;;;7.13;;
55254;SDS011;41118;44.634;11.182;2023-02-21T16:27:12;25.42;;;8.38;;
55254;SDS011;41118;44.634;11.182;2023-02-21T16:29:39;20.77;;;8.25;;
55254;SDS011;41118;44.634;11.182;2023-02-21T16:32:08;21.98;;;6.82;;
55254;SDS011;41118;44.634;11.182;2023-02-21T16:37:07;24.45;;;5.35;;
55254;SDS011;41118;44.634;11.182;2023-02-21T16:39:35;19.52;;;5.18;;
55254;SDS011;41118;44.634;11.182;2023-02-21T16:42:01;14.98;;;5.00;;
55254;SDS011;41118;44.634;11.182;2023-02-21T16:44:28;15.15;;;5.50;;
55254;SDS011;41118;44.634;11.182;2023-02-21T16:46:54;14.65;;;4.13;;
55254;SDS011;41118;44.634;11.182;2023-02-21T16:49:20;14.30;;;3.63;;
55254;SDS011;41118;44.634;11.182;2023-02-21T16:51:46;18.23;;;5.70;;
55254;SDS011;41118;44.634;11.182;2023-02-21T16:54:13;18.02;;;7.25;;
55254;SDS011;41118;44.634;11.182;2023-02-21T16:56:43;14.30;;;6.22;;
55254;SDS011;41118;44.634;11.182;2023-02-21T16:59:10;16.45;;;5.82;;
55254;SDS011;41118;44.634;11.182;2023-02-21T17:01:37;16.33;;;6.38;;
55254;SDS011;41118;44.634;11.182;2023-02-21T17:04:04;17.20;;;4.80;;
55254;SDS011;41118;44.634;11.182;2023-02-21T17:06:31;18.90;;;6.10;;
55254;SDS011;41118;44.634;11.182;2023-02-21T17:08:58;14.65;;;5.75;;
55254;SDS011;41118;44.634;11.182;2023-02-21T17:11:25;14.10;;;5.38;;
55254;SDS011;41118;44.634;11.182;2023-02-21T17:13:51;23.60;;;7.20;;
55254;SDS011;41118;44.634;11.182;2023-02-21T17:16:17;22.42;;;7.00;;
55254;SDS011;41118;44.634;11.182;2023-02-21T17:18:44;17.98;;;7.28;;
55254;SDS011;41118;44.634;11.182;2023-02-21T17:21:10;19.95;;;6.47;;
55254;SDS011;41118;44.634;11.182;2023-02-21T17:23:36;18.73;;;7.13;;